sensor_id;sensor_type;location;lat;lon;timestamp;temperature;humidity
25436;DHT22;13363;52.772;-3.890;2023-05-10T00:01:30;11.10;99.90
25436;DHT22;13363;52.772;-3.890;2023-05-10T00:03:56;11.10;99.90
25436;DHT22;13363;52.772;-3.890;2023-05-10T00:06:21;11.10;99.90
25436;DHT22;13363;52.772;-3.890;2023-05-10T00:08:47;11.00;99.90
25436;DHT22;13363;52.772;-3.890;2023-05-10T00:11:13;11.00;99.90
25436;DHT22;13363;52.772;-3.890;2023-05-10T00:13:40;10.80;99.90
25436;DHT22;13363;52.772;-3.890;2023-05-10T00:16:06;10.80;99.90
25436;DHT22;13363;52.772;-3.890;2023-05-10T00:18:32;10.70;99.90
25436;DHT22;13363;52.772;-3.890;2023-05-10T00:20:57;10.60;99.90
25436;DHT22;13363;52.772;-3.890;2023-05-10T00:23:23;10.50;99.90
25436;DHT22;13363;52.772;-3.890;2023-05-10T00:25:49;10.50;99.90
25436;DHT22;13363;52.772;-3.890;2023-05-10T00:28:15;10.60;99.90
25436;DHT22;13363;52.772;-3.890;2023-05-10T00:30:41;10.60;99.90
25436;DHT22;13363;52.772;-3.890;2023-05-10T00:33:07;10.60;99.90
25436;DHT22;13363;52.772;-3.890;2023-05-10T00:35:32;10.70;99.90
25436;DHT22;13363;52.772;-3.890;2023-05-10T00:37:59;10.70;99.90
25436;DHT22;13363;52.772;-3.890;2023-05-10T00:40:25;10.70;99.90
25436;DHT22;13363;52.772;-3.890;2023-05-10T00:42:51;10.80;99.90
25436;DHT22;13363;52.772;-3.890;2023-05-10T00:45:17;10.80;99.90
25436;DHT22;13363;52.772;-3.890;2023-05-10T00:47:43;10.90;99.90
25436;DHT22;13363;52.772;-3.890;2023-05-10T00:50:09;10.80;99.90
25436;DHT22;13363;52.772;-3.890;2023-05-10T00:52:35;10.80;99.90
25436;DHT22;13363;52.772;-3.890;2023-05-10T00:55:01;10.90;99.90
25436;DHT22;13363;52.772;-3.890;2023-05-10T00:57:28;10.90;99.90
25436;DHT22;13363;52.772;-3.890;2023-05-10T00:59:54;10.90;99.90
25436;DHT22;13363;52.772;-3.890;2023-05-10T01:04:46;10.80;99.90
25436;DHT22;13363;52.772;-3.890;2023-05-10T01:07:12;10.70;99.90
25436;DHT22;13363;52.772;-3.890;2023-05-10T01:09:38;10.60;99.90
25436;DHT22;13363;52.772;-3.890;2023-05-10T01:12:05;10.60;99.90
25436;DHT22;13363;52.772;-3.890;2023-05-10T01:14:32;10.50;99.90
25436;DHT22;13363;52.772;-3.890;2023-05-10T01:17:00;10.30;99.90
25436;DHT22;13363;52.772;-3.890;2023-05-10T01:19:28;10.30;99.90
25436;DHT22;13363;52.772;-3.890;2023-05-10T01:24:58;10.30;99.90
25436;DHT22;13363;52.772;-3.890;2023-05-10T01:30:33;10.30;99.90
25436;DHT22;13363;52.772;-3.890;2023-05-10T01:33:35;10.30;99.90
25436;DHT22;13363;52.772;-3.890;2023-05-10T01:41:07;10.10;99.90
25436;DHT22;13363;52.772;-3.890;2023-05-10T01:43:46;10.00;99.90
25436;DHT22;13363;52.772;-3.890;2023-05-10T01:46:24;10.00;99.90
25436;DHT22;13363;52.772;-3.890;2023-05-10T01:48:55;10.00;99.90
25436;DHT22;13363;52.772;-3.890;2023-05-10T01:51:24;10.00;99.90
25436;DHT22;13363;52.772;-3.890;2023-05-10T01:53:56;10.10;99.90
25436;DHT22;13363;52.772;-3.890;2023-05-10T01:56:26;10.10;99.90
25436;DHT22;13363;52.772;-3.890;2023-05-10T01:58:54;10.10;99.90
25436;DHT22;13363;52.772;-3.890;2023-05-10T02:01:21;10.00;99.90
25436;DHT22;13363;52.772;-3.890;2023-05-10T02:03:49;10.00;99.90
25436;DHT22;13363;52.772;-3.890;2023-05-10T02:06:17;10.00;99.90
25436;DHT22;13363;52.772;-3.890;2023-05-10T02:08:44;10.00;99.90
25436;DHT22;13363;52.772;-3.890;2023-05-10T02:11:13;10.00;99.90
25436;DHT22;13363;52.772;-3.890;2023-05-10T02:13:39;10.00;99.90
25436;DHT22;13363;52.772;-3.890;2023-05-10T02:16:06;10.10;99.90
25436;DHT22;13363;52.772;-3.890;2023-05-10T02:18:34;10.10;99.90
25436;DHT22;13363;52.772;-3.890;2023-05-10T02:21:02;10.20;99.90
25436;DHT22;13363;52.772;-3.890;2023-05-10T02:23:29;10.20;99.90
25436;DHT22;13363;52.772;-3.890;2023-05-10T02:25:57;10.20;99.90
25436;DHT22;13363;52.772;-3.890;2023-05-10T02:28:24;10.20;99.90
25436;DHT22;13363;52.772;-3.890;2023-05-10T02:30:52;10.10;99.90
25436;DHT22;13363;52.772;-3.890;2023-05-10T02:33:19;10.10;99.90
25436;DHT22;13363;52.772;-3.890;2023-05-10T02:35:46;10.00;99.90
25436;DHT22;13363;52.772;-3.890;2023-05-10T02:38:14;10.00;99.90
25436;DHT22;13363;52.772;-3.890;2023-05-10T02:40:41;10.00;99.90
25436;DHT22;13363;52.772;-3.890;2023-05-10T02:43:11;9.90;99.90
25436;DHT22;13363;52.772;-3.890;2023-05-10T02:45:38;9.90;99.90
25436;DHT22;13363;52.772;-3.890;2023-05-10T02:48:05;9.90;99.90
25436;DHT22;13363;52.772;-3.890;2023-05-10T02:50:33;9.80;99.90
25436;DHT22;13363;52.772;-3.890;2023-05-10T02:53:09;9.90;99.90
25436;DHT22;13363;52.772;-3.890;2023-05-10T02:55:39;9.90;99.90
25436;DHT22;13363;52.772;-3.890;2023-05-10T02:58:06;9.90;99.90
25436;DHT22;13363;52.772;-3.890;2023-05-10T03:00:32;10.00;99.90
25436;DHT22;13363;52.772;-3.890;2023-05-10T03:02:58;10.00;99.90
25436;DHT22;13363;52.772;-3.890;2023-05-10T03:05:24;9.90;99.90
25436;DHT22;13363;52.772;-3.890;2023-05-10T03:07:50;9.90;99.90
25436;DHT22;13363;52.772;-3.890;2023-05-10T03:10:16;9.90;99.90
25436;DHT22;13363;52.772;-3.890;2023-05-10T03:15:51;9.80;99.90
25436;DHT22;13363;52.772;-3.890;2023-05-10T03:18:29;9.90;99.90
25436;DHT22;13363;52.772;-3.890;2023-05-10T03:21:02;9.90;99.90
25436;DHT22;13363;52.772;-3.890;2023-05-10T03:23:35;9.90;99.90
25436;DHT22;13363;52.772;-3.890;2023-05-10T03:26:02;9.80;99.90
25436;DHT22;13363;52.772;-3.890;2023-05-10T03:28:31;9.90;99.90
25436;DHT22;13363;52.772;-3.890;2023-05-10T03:30:59;10.00;99.90
25436;DHT22;13363;52.772;-3.890;2023-05-10T03:33:25;10.00;99.90
25436;DHT22;13363;52.772;-3.890;2023-05-10T03:35:51;10.00;99.90
25436;DHT22;13363;52.772;-3.890;2023-05-10T03:38:17;10.00;99.90
25436;DHT22;13363;52.772;-3.890;2023-05-10T03:40:43;10.10;99.90
25436;DHT22;13363;52.772;-3.890;2023-05-10T03:43:08;10.10;99.90
25436;DHT22;13363;52.772;-3.890;2023-05-10T03:45:34;10.20;99.90
25436;DHT22;13363;52.772;-3.890;2023-05-10T03:48:01;10.20;99.90
25436;DHT22;13363;52.772;-3.890;2023-05-10T03:50:26;10.30;99.90
25436;DHT22;13363;52.772;-3.890;2023-05-10T03:52:52;10.30;99.90
25436;DHT22;13363;52.772;-3.890;2023-05-10T03:55:18;10.30;99.90
25436;DHT22;13363;52.772;-3.890;2023-05-10T03:57:44;10.40;99.90
25436;DHT22;13363;52.772;-3.890;2023-05-10T04:00:10;10.50;99.90
25436;DHT22;13363;52.772;-3.890;2023-05-10T04:02:36;10.60;99.90
25436;DHT22;13363;52.772;-3.890;2023-05-10T04:05:03;10.30;99.90
25436;DHT22;13363;52.772;-3.890;2023-05-10T04:07:28;10.40;99.90
25436;DHT22;13363;52.772;-3.890;2023-05-10T04:09:54;10.50;99.90
25436;DHT22;13363;52.772;-3.890;2023-05-10T04:12:20;10.40;99.90
25436;DHT22;13363;52.772;-3.890;2023-05-10T04:14:46;10.40;99.90
25436;DHT22;13363;52.772;-3.890;2023-05-10T04:17:12;10.40;99.90
25436;DHT22;13363;52.772;-3.890;2023-05-10T04:19:37;10.30;99.90
25436;DHT22;13363;52.772;-3.890;2023-05-10T04:22:03;10.30;99.90
25436;DHT22;13363;52.772;-3.890;2023-05-10T04:24:29;10.40;99.90
25436;DHT22;13363;52.772;-3.890;2023-05-10T04:26:55;10.30;99.90
25436;DHT22;13363;52.772;-3.890;2023-05-10T04:29:21;10.30;99.90
25436;DHT22;13363;52.772;-3.890;2023-05-10T04:31:47;10.30;99.90
25436;DHT22;13363;52.772;-3.890;2023-05-10T04:34:14;10.30;99.90
25436;DHT22;13363;52.772;-3.890;2023-05-10T04:36:40;10.40;99.90
25436;DHT22;13363;52.772;-3.890;2023-05-10T04:39:05;10.40;99.90
25436;DHT22;13363;52.772;-3.890;2023-05-10T04:41:31;10.50;99.90
25436;DHT22;13363;52.772;-3.890;2023-05-10T04:43:57;10.40;99.90
25436;DHT22;13363;52.772;-3.890;2023-05-10T04:46:23;10.40;99.90
25436;DHT22;13363;52.772;-3.890;2023-05-10T04:48:49;10.40;99.90
25436;DHT22;13363;52.772;-3.890;2023-05-10T04:51:14;10.40;99.90
25436;DHT22;13363;52.772;-3.890;2023-05-10T04:53:40;10.50;99.90
25436;DHT22;13363;52.772;-3.890;2023-05-10T04:58:33;10.60;99.90
25436;DHT22;13363;52.772;-3.890;2023-05-10T05:01:07;10.50;99.90
25436;DHT22;13363;52.772;-3.890;2023-05-10T05:03:34;10.50;99.90
25436;DHT22;13363;52.772;-3.890;2023-05-10T05:06:00;10.60;99.90
25436;DHT22;13363;52.772;-3.890;2023-05-10T05:10:52;10.70;99.90
25436;DHT22;13363;52.772;-3.890;2023-05-10T05:13:18;10.70;99.90
25436;DHT22;13363;52.772;-3.890;2023-05-10T05:15:44;10.70;99.90
25436;DHT22;13363;52.772;-3.890;2023-05-10T05:18:10;10.80;99.90
25436;DHT22;13363;52.772;-3.890;2023-05-10T05:20:35;10.80;99.90
25436;DHT22;13363;52.772;-3.890;2023-05-10T05:23:01;10.80;99.90
25436;DHT22;13363;52.772;-3.890;2023-05-10T05:25:27;10.90;99.90
25436;DHT22;13363;52.772;-3.890;2023-05-10T05:27:53;11.00;99.90
25436;DHT22;13363;52.772;-3.890;2023-05-10T05:30:19;11.00;99.90
25436;DHT22;13363;52.772;-3.890;2023-05-10T05:32:45;11.10;99.90
25436;DHT22;13363;52.772;-3.890;2023-05-10T05:35:12;11.10;99.90
25436;DHT22;13363;52.772;-3.890;2023-05-10T05:37:38;11.20;99.90
25436;DHT22;13363;52.772;-3.890;2023-05-10T05:40:04;11.20;99.90
25436;DHT22;13363;52.772;-3.890;2023-05-10T05:42:31;11.30;99.90
25436;DHT22;13363;52.772;-3.890;2023-05-10T05:44:57;11.30;99.90
25436;DHT22;13363;52.772;-3.890;2023-05-10T05:47:23;11.50;99.90
25436;DHT22;13363;52.772;-3.890;2023-05-10T05:49:49;11.60;99.90
25436;DHT22;13363;52.772;-3.890;2023-05-10T05:52:14;11.60;99.90
25436;DHT22;13363;52.772;-3.890;2023-05-10T05:54:40;11.60;99.90
25436;DHT22;13363;52.772;-3.890;2023-05-10T05:57:06;11.70;99.90
25436;DHT22;13363;52.772;-3.890;2023-05-10T05:59:33;11.70;99.90
25436;DHT22;13363;52.772;-3.890;2023-05-10T06:04:26;11.90;99.90
25436;DHT22;13363;52.772;-3.890;2023-05-10T06:06:52;12.00;99.90
25436;DHT22;13363;52.772;-3.890;2023-05-10T06:09:17;12.00;99.90
25436;DHT22;13363;52.772;-3.890;2023-05-10T06:11:43;12.10;99.90
25436;DHT22;13363;52.772;-3.890;2023-05-10T06:14:10;12.10;99.90
25436;DHT22;13363;52.772;-3.890;2023-05-10T06:16:36;12.10;99.90
25436;DHT22;13363;52.772;-3.890;2023-05-10T06:19:02;12.10;99.90
25436;DHT22;13363;52.772;-3.890;2023-05-10T06:21:28;12.10;99.90
25436;DHT22;13363;52.772;-3.890;2023-05-10T06:23:54;12.20;99.90
25436;DHT22;13363;52.772;-3.890;2023-05-10T06:28:46;12.10;99.90
25436;DHT22;13363;52.772;-3.890;2023-05-10T06:31:12;12.10;99.90
25436;DHT22;13363;52.772;-3.890;2023-05-10T06:33:38;12.10;99.90
25436;DHT22;13363;52.772;-3.890;2023-05-10T06:36:04;12.20;99.90
25436;DHT22;13363;52.772;-3.890;2023-05-10T06:38:30;12.20;99.90
25436;DHT22;13363;52.772;-3.890;2023-05-10T06:40:55;12.20;99.90
25436;DHT22;13363;52.772;-3.890;2023-05-10T06:43:21;12.20;99.90
25436;DHT22;13363;52.772;-3.890;2023-05-10T06:45:48;12.30;99.90
25436;DHT22;13363;52.772;-3.890;2023-05-10T06:48:13;12.30;99.90
25436;DHT22;13363;52.772;-3.890;2023-05-10T06:50:39;12.30;99.90
25436;DHT22;13363;52.772;-3.890;2023-05-10T06:53:05;12.20;99.90
25436;DHT22;13363;52.772;-3.890;2023-05-10T06:55:31;12.10;99.90
25436;DHT22;13363;52.772;-3.890;2023-05-10T06:57:57;12.10;99.90
25436;DHT22;13363;52.772;-3.890;2023-05-10T07:00:23;12.00;99.90
25436;DHT22;13363;52.772;-3.890;2023-05-10T07:02:48;12.00;99.90
25436;DHT22;13363;52.772;-3.890;2023-05-10T07:07:41;12.10;99.90
25436;DHT22;13363;52.772;-3.890;2023-05-10T07:10:07;12.00;99.90
25436;DHT22;13363;52.772;-3.890;2023-05-10T07:14:59;12.00;99.90
25436;DHT22;13363;52.772;-3.890;2023-05-10T07:17:25;11.90;99.90
25436;DHT22;13363;52.772;-3.890;2023-05-10T07:19:51;11.90;99.90
25436;DHT22;13363;52.772;-3.890;2023-05-10T07:24:43;11.90;99.90
25436;DHT22;13363;52.772;-3.890;2023-05-10T07:27:09;11.90;99.90
25436;DHT22;13363;52.772;-3.890;2023-05-10T07:29:35;11.90;99.90
25436;DHT22;13363;52.772;-3.890;2023-05-10T07:32:01;11.90;99.90
25436;DHT22;13363;52.772;-3.890;2023-05-10T07:34:27;11.80;99.90
25436;DHT22;13363;52.772;-3.890;2023-05-10T07:36:56;11.80;99.90
25436;DHT22;13363;52.772;-3.890;2023-05-10T07:39:22;11.80;99.90
25436;DHT22;13363;52.772;-3.890;2023-05-10T07:41:47;11.90;99.90
25436;DHT22;13363;52.772;-3.890;2023-05-10T07:44:14;11.90;99.90
25436;DHT22;13363;52.772;-3.890;2023-05-10T07:46:40;12.00;99.90
25436;DHT22;13363;52.772;-3.890;2023-05-10T07:49:06;12.10;99.90
25436;DHT22;13363;52.772;-3.890;2023-05-10T07:51:31;12.10;99.90
25436;DHT22;13363;52.772;-3.890;2023-05-10T07:53:57;12.20;99.90
25436;DHT22;13363;52.772;-3.890;2023-05-10T07:56:32;12.10;99.90
25436;DHT22;13363;52.772;-3.890;2023-05-10T07:58:59;12.10;99.90
25436;DHT22;13363;52.772;-3.890;2023-05-10T08:01:26;12.20;99.90
25436;DHT22;13363;52.772;-3.890;2023-05-10T08:03:52;12.20;99.90
25436;DHT22;13363;52.772;-3.890;2023-05-10T08:06:19;12.30;99.90
25436;DHT22;13363;52.772;-3.890;2023-05-10T08:08:46;12.30;99.90
25436;DHT22;13363;52.772;-3.890;2023-05-10T08:13:44;12.20;99.90
25436;DHT22;13363;52.772;-3.890;2023-05-10T08:16:11;12.20;99.90
25436;DHT22;13363;52.772;-3.890;2023-05-10T08:18:37;12.20;99.90
25436;DHT22;13363;52.772;-3.890;2023-05-10T08:21:04;12.10;99.90
25436;DHT22;13363;52.772;-3.890;2023-05-10T08:23:30;12.10;99.90
25436;DHT22;13363;52.772;-3.890;2023-05-10T08:25:55;12.00;99.90
25436;DHT22;13363;52.772;-3.890;2023-05-10T08:28:21;12.00;99.90
25436;DHT22;13363;52.772;-3.890;2023-05-10T08:30:49;12.00;99.90
25436;DHT22;13363;52.772;-3.890;2023-05-10T08:33:15;12.00;99.90
25436;DHT22;13363;52.772;-3.890;2023-05-10T08:35:41;12.00;99.90
25436;DHT22;13363;52.772;-3.890;2023-05-10T08:38:07;12.00;99.90
25436;DHT22;13363;52.772;-3.890;2023-05-10T08:40:33;12.00;99.90
25436;DHT22;13363;52.772;-3.890;2023-05-10T08:43:09;12.00;99.90
25436;DHT22;13363;52.772;-3.890;2023-05-10T08:45:41;12.00;99.90
25436;DHT22;13363;52.772;-3.890;2023-05-10T08:48:10;12.00;99.90
25436;DHT22;13363;52.772;-3.890;2023-05-10T08:50:41;12.10;99.90
25436;DHT22;13363;52.772;-3.890;2023-05-10T08:53:11;12.10;99.90
25436;DHT22;13363;52.772;-3.890;2023-05-10T08:55:37;12.10;99.90
25436;DHT22;13363;52.772;-3.890;2023-05-10T09:00:30;12.20;99.90
25436;DHT22;13363;52.772;-3.890;2023-05-10T09:02:58;12.10;99.90
25436;DHT22;13363;52.772;-3.890;2023-05-10T09:05:24;12.10;99.90
25436;DHT22;13363;52.772;-3.890;2023-05-10T09:07:50;12.00;99.90
25436;DHT22;13363;52.772;-3.890;2023-05-10T09:10:16;12.00;99.90
25436;DHT22;13363;52.772;-3.890;2023-05-10T09:12:43;11.90;99.90
25436;DHT22;13363;52.772;-3.890;2023-05-10T09:15:11;11.90;99.90
25436;DHT22;13363;52.772;-3.890;2023-05-10T09:17:39;12.00;99.90
25436;DHT22;13363;52.772;-3.890;2023-05-10T09:20:07;12.10;99.90
25436;DHT22;13363;52.772;-3.890;2023-05-10T09:27:34;12.00;99.90
25436;DHT22;13363;52.772;-3.890;2023-05-10T09:32:44;12.10;99.90
25436;DHT22;13363;52.772;-3.890;2023-05-10T09:35:15;12.10;99.90
25436;DHT22;13363;52.772;-3.890;2023-05-10T09:37:43;12.10;99.90
25436;DHT22;13363;52.772;-3.890;2023-05-10T09:40:14;12.10;99.90
25436;DHT22;13363;52.772;-3.890;2023-05-10T09:42:43;12.20;99.90
25436;DHT22;13363;52.772;-3.890;2023-05-10T09:45:16;12.20;99.90
25436;DHT22;13363;52.772;-3.890;2023-05-10T09:47:41;12.20;99.90
25436;DHT22;13363;52.772;-3.890;2023-05-10T09:50:08;12.30;99.90
25436;DHT22;13363;52.772;-3.890;2023-05-10T09:52:47;12.30;99.90
25436;DHT22;13363;52.772;-3.890;2023-05-10T09:55:14;12.20;99.90
25436;DHT22;13363;52.772;-3.890;2023-05-10T09:57:40;12.30;99.90
25436;DHT22;13363;52.772;-3.890;2023-05-10T10:00:07;12.30;99.90
25436;DHT22;13363;52.772;-3.890;2023-05-10T10:02:33;12.20;99.90
25436;DHT22;13363;52.772;-3.890;2023-05-10T10:05:06;12.10;99.90
25436;DHT22;13363;52.772;-3.890;2023-05-10T10:07:36;12.10;99.90
25436;DHT22;13363;52.772;-3.890;2023-05-10T10:10:06;12.00;99.90
25436;DHT22;13363;52.772;-3.890;2023-05-10T10:12:41;12.00;99.90
25436;DHT22;13363;52.772;-3.890;2023-05-10T10:15:12;12.00;99.90
25436;DHT22;13363;52.772;-3.890;2023-05-10T10:17:41;12.30;99.90
25436;DHT22;13363;52.772;-3.890;2023-05-10T10:20:09;12.00;99.90
25436;DHT22;13363;52.772;-3.890;2023-05-10T10:22:36;12.20;99.90
25436;DHT22;13363;52.772;-3.890;2023-05-10T10:25:03;12.20;99.90
25436;DHT22;13363;52.772;-3.890;2023-05-10T10:30:46;12.20;99.90
25436;DHT22;13363;52.772;-3.890;2023-05-10T10:33:51;12.10;99.90
25436;DHT22;13363;52.772;-3.890;2023-05-10T10:36:20;12.10;99.90
25436;DHT22;13363;52.772;-3.890;2023-05-10T10:41:33;12.00;99.90
25436;DHT22;13363;52.772;-3.890;2023-05-10T10:49:49;12.00;99.90
25436;DHT22;13363;52.772;-3.890;2023-05-10T10:55:00;12.00;99.90
25436;DHT22;13363;52.772;-3.890;2023-05-10T10:57:27;12.00;99.90
25436;DHT22;13363;52.772;-3.890;2023-05-10T11:00:17;11.90;99.90
25436;DHT22;13363;52.772;-3.890;2023-05-10T11:02:45;12.00;99.90
25436;DHT22;13363;52.772;-3.890;2023-05-10T11:08:15;12.00;99.90
25436;DHT22;13363;52.772;-3.890;2023-05-10T11:11:03;12.10;99.90
25436;DHT22;13363;52.772;-3.890;2023-05-10T11:13:43;12.10;99.90
25436;DHT22;13363;52.772;-3.890;2023-05-10T11:18:40;12.10;99.90
25436;DHT22;13363;52.772;-3.890;2023-05-10T11:21:08;12.20;99.90
25436;DHT22;13363;52.772;-3.890;2023-05-10T11:23:55;12.20;99.90
25436;DHT22;13363;52.772;-3.890;2023-05-10T11:26:36;12.30;99.90
25436;DHT22;13363;52.772;-3.890;2023-05-10T11:29:02;12.30;99.90
25436;DHT22;13363;52.772;-3.890;2023-05-10T11:31:30;12.40;99.90
25436;DHT22;13363;52.772;-3.890;2023-05-10T11:33:57;12.50;99.90
25436;DHT22;13363;52.772;-3.890;2023-05-10T11:36:25;12.50;99.90
25436;DHT22;13363;52.772;-3.890;2023-05-10T11:38:52;12.60;99.90
25436;DHT22;13363;52.772;-3.890;2023-05-10T11:41:19;12.60;99.90
25436;DHT22;13363;52.772;-3.890;2023-05-10T11:43:49;12.50;99.90
25436;DHT22;13363;52.772;-3.890;2023-05-10T11:46:15;12.60;99.90
25436;DHT22;13363;52.772;-3.890;2023-05-10T11:48:42;12.60;99.90
25436;DHT22;13363;52.772;-3.890;2023-05-10T11:51:09;12.60;99.90
25436;DHT22;13363;52.772;-3.890;2023-05-10T11:53:36;12.70;99.90
25436;DHT22;13363;52.772;-3.890;2023-05-10T11:56:09;12.60;99.90
25436;DHT22;13363;52.772;-3.890;2023-05-10T11:58:37;12.70;99.90
25436;DHT22;13363;52.772;-3.890;2023-05-10T12:01:04;12.60;99.90
25436;DHT22;13363;52.772;-3.890;2023-05-10T12:03:31;12.50;99.90
25436;DHT22;13363;52.772;-3.890;2023-05-10T12:05:57;12.40;99.90
25436;DHT22;13363;52.772;-3.890;2023-05-10T12:08:26;12.30;99.90
25436;DHT22;13363;52.772;-3.890;2023-05-10T12:11:02;12.20;99.90
25436;DHT22;13363;52.772;-3.890;2023-05-10T12:13:29;12.20;99.90
25436;DHT22;13363;52.772;-3.890;2023-05-10T12:15:58;12.40;99.90
25436;DHT22;13363;52.772;-3.890;2023-05-10T12:18:24;12.40;99.90
25436;DHT22;13363;52.772;-3.890;2023-05-10T12:20:53;12.50;99.90
25436;DHT22;13363;52.772;-3.890;2023-05-10T12:23:20;12.50;99.90
25436;DHT22;13363;52.772;-3.890;2023-05-10T12:25:46;12.40;99.90
25436;DHT22;13363;52.772;-3.890;2023-05-10T12:28:12;12.30;99.90
25436;DHT22;13363;52.772;-3.890;2023-05-10T12:30:38;12.20;99.90
25436;DHT22;13363;52.772;-3.890;2023-05-10T12:33:12;12.30;99.90
25436;DHT22;13363;52.772;-3.890;2023-05-10T12:35:50;12.40;99.90
25436;DHT22;13363;52.772;-3.890;2023-05-10T12:38:27;12.50;99.90
25436;DHT22;13363;52.772;-3.890;2023-05-10T12:40:56;12.40;99.90
25436;DHT22;13363;52.772;-3.890;2023-05-10T12:43:21;12.40;99.90
25436;DHT22;13363;52.772;-3.890;2023-05-10T12:45:48;12.40;99.90
25436;DHT22;13363;52.772;-3.890;2023-05-10T12:48:15;12.50;99.90
25436;DHT22;13363;52.772;-3.890;2023-05-10T12:50:41;12.60;99.90
25436;DHT22;13363;52.772;-3.890;2023-05-10T12:53:06;12.70;99.90
25436;DHT22;13363;52.772;-3.890;2023-05-10T12:55:32;12.70;99.90
25436;DHT22;13363;52.772;-3.890;2023-05-10T12:57:58;12.80;99.90
25436;DHT22;13363;52.772;-3.890;2023-05-10T13:00:24;12.90;99.90
25436;DHT22;13363;52.772;-3.890;2023-05-10T13:02:50;12.90;99.90
25436;DHT22;13363;52.772;-3.890;2023-05-10T13:05:15;12.80;99.90
25436;DHT22;13363;52.772;-3.890;2023-05-10T13:07:41;12.80;99.90
25436;DHT22;13363;52.772;-3.890;2023-05-10T13:10:09;12.80;99.90
25436;DHT22;13363;52.772;-3.890;2023-05-10T13:12:36;12.90;99.90
25436;DHT22;13363;52.772;-3.890;2023-05-10T13:15:02;12.90;99.90
25436;DHT22;13363;52.772;-3.890;2023-05-10T13:17:28;12.90;99.90
25436;DHT22;13363;52.772;-3.890;2023-05-10T13:19:54;12.90;99.90
25436;DHT22;13363;52.772;-3.890;2023-05-10T13:22:20;12.90;99.90
25436;DHT22;13363;52.772;-3.890;2023-05-10T13:24:46;12.80;99.90
25436;DHT22;13363;52.772;-3.890;2023-05-10T13:27:12;12.80;99.90
25436;DHT22;13363;52.772;-3.890;2023-05-10T13:29:38;12.80;99.90
25436;DHT22;13363;52.772;-3.890;2023-05-10T13:32:04;12.80;99.90
25436;DHT22;13363;52.772;-3.890;2023-05-10T13:34:30;12.70;99.90
25436;DHT22;13363;52.772;-3.890;2023-05-10T13:36:56;12.80;99.90
25436;DHT22;13363;52.772;-3.890;2023-05-10T13:39:22;13.00;99.90
25436;DHT22;13363;52.772;-3.890;2023-05-10T13:41:48;13.00;99.90
25436;DHT22;13363;52.772;-3.890;2023-05-10T13:44:14;12.90;99.90
25436;DHT22;13363;52.772;-3.890;2023-05-10T13:46:41;13.00;99.90
25436;DHT22;13363;52.772;-3.890;2023-05-10T13:49:08;12.90;99.90
25436;DHT22;13363;52.772;-3.890;2023-05-10T13:51:35;13.00;99.90
25436;DHT22;13363;52.772;-3.890;2023-05-10T13:54:02;12.80;99.90
25436;DHT22;13363;52.772;-3.890;2023-05-10T13:56:28;12.80;99.90
25436;DHT22;13363;52.772;-3.890;2023-05-10T13:58:54;12.80;99.90
25436;DHT22;13363;52.772;-3.890;2023-05-10T14:01:19;12.70;99.90
25436;DHT22;13363;52.772;-3.890;2023-05-10T14:03:45;12.80;99.90
25436;DHT22;13363;52.772;-3.890;2023-05-10T14:06:11;12.60;99.90
25436;DHT22;13363;52.772;-3.890;2023-05-10T14:08:37;12.70;99.90
25436;DHT22;13363;52.772;-3.890;2023-05-10T14:11:03;12.50;99.90
25436;DHT22;13363;52.772;-3.890;2023-05-10T14:13:28;12.50;99.90
25436;DHT22;13363;52.772;-3.890;2023-05-10T14:15:55;12.90;99.90
25436;DHT22;13363;52.772;-3.890;2023-05-10T14:18:20;13.00;99.90
25436;DHT22;13363;52.772;-3.890;2023-05-10T14:20:46;13.20;99.90
25436;DHT22;13363;52.772;-3.890;2023-05-10T14:23:12;13.30;99.90
25436;DHT22;13363;52.772;-3.890;2023-05-10T14:25:40;13.20;99.90
25436;DHT22;13363;52.772;-3.890;2023-05-10T14:28:06;13.10;99.90
25436;DHT22;13363;52.772;-3.890;2023-05-10T14:30:32;13.10;99.90
25436;DHT22;13363;52.772;-3.890;2023-05-10T14:33:02;13.30;99.90
25436;DHT22;13363;52.772;-3.890;2023-05-10T14:35:30;13.50;99.90
25436;DHT22;13363;52.772;-3.890;2023-05-10T14:37:56;13.40;99.90
25436;DHT22;13363;52.772;-3.890;2023-05-10T14:40:23;13.30;99.90
25436;DHT22;13363;52.772;-3.890;2023-05-10T14:42:50;13.30;99.90
25436;DHT22;13363;52.772;-3.890;2023-05-10T14:45:16;13.10;99.90
25436;DHT22;13363;52.772;-3.890;2023-05-10T14:47:42;13.10;99.90
25436;DHT22;13363;52.772;-3.890;2023-05-10T14:50:08;13.10;99.90
25436;DHT22;13363;52.772;-3.890;2023-05-10T14:52:34;13.10;99.90
25436;DHT22;13363;52.772;-3.890;2023-05-10T14:55:00;13.00;99.90
25436;DHT22;13363;52.772;-3.890;2023-05-10T14:57:27;13.10;99.90
25436;DHT22;13363;52.772;-3.890;2023-05-10T14:59:56;12.90;99.90
25436;DHT22;13363;52.772;-3.890;2023-05-10T15:02:25;12.80;99.90
25436;DHT22;13363;52.772;-3.890;2023-05-10T15:04:55;12.80;99.90
25436;DHT22;13363;52.772;-3.890;2023-05-10T15:07:24;12.80;99.90
25436;DHT22;13363;52.772;-3.890;2023-05-10T15:09:53;12.70;99.90
25436;DHT22;13363;52.772;-3.890;2023-05-10T15:12:21;12.70;99.90
25436;DHT22;13363;52.772;-3.890;2023-05-10T15:14:52;12.80;99.90
25436;DHT22;13363;52.772;-3.890;2023-05-10T15:17:18;12.80;99.90
25436;DHT22;13363;52.772;-3.890;2023-05-10T15:19:44;12.70;99.90
25436;DHT22;13363;52.772;-3.890;2023-05-10T15:22:10;12.70;99.90
25436;DHT22;13363;52.772;-3.890;2023-05-10T15:24:36;12.70;99.90
25436;DHT22;13363;52.772;-3.890;2023-05-10T15:27:02;12.60;99.90
25436;DHT22;13363;52.772;-3.890;2023-05-10T15:29:29;12.70;99.90
25436;DHT22;13363;52.772;-3.890;2023-05-10T15:31:55;12.70;99.90
25436;DHT22;13363;52.772;-3.890;2023-05-10T15:34:21;12.70;99.90
25436;DHT22;13363;52.772;-3.890;2023-05-10T15:36:49;12.60;99.90
25436;DHT22;13363;52.772;-3.890;2023-05-10T15:39:17;12.70;99.90
25436;DHT22;13363;52.772;-3.890;2023-05-10T15:41:44;12.70;99.90
25436;DHT22;13363;52.772;-3.890;2023-05-10T15:44:10;12.60;99.90
25436;DHT22;13363;52.772;-3.890;2023-05-10T15:46:36;12.50;99.90
25436;DHT22;13363;52.772;-3.890;2023-05-10T15:49:03;12.50;99.90
25436;DHT22;13363;52.772;-3.890;2023-05-10T15:51:29;12.60;99.90
25436;DHT22;13363;52.772;-3.890;2023-05-10T15:53:55;12.60;99.90
25436;DHT22;13363;52.772;-3.890;2023-05-10T15:56:21;12.70;99.90
25436;DHT22;13363;52.772;-3.890;2023-05-10T15:58:47;12.80;99.90
25436;DHT22;13363;52.772;-3.890;2023-05-10T16:01:13;12.80;99.90
25436;DHT22;13363;52.772;-3.890;2023-05-10T16:03:40;12.70;99.90
25436;DHT22;13363;52.772;-3.890;2023-05-10T16:06:06;12.70;99.90
25436;DHT22;13363;52.772;-3.890;2023-05-10T16:08:31;12.70;99.90
25436;DHT22;13363;52.772;-3.890;2023-05-10T16:11:03;12.70;99.90
25436;DHT22;13363;52.772;-3.890;2023-05-10T16:13:34;12.70;99.90
25436;DHT22;13363;52.772;-3.890;2023-05-10T16:16:00;12.60;99.90
25436;DHT22;13363;52.772;-3.890;2023-05-10T16:18:26;12.60;99.90
25436;DHT22;13363;52.772;-3.890;2023-05-10T16:20:52;12.60;99.90
25436;DHT22;13363;52.772;-3.890;2023-05-10T16:23:18;12.60;99.90
25436;DHT22;13363;52.772;-3.890;2023-05-10T16:25:44;12.70;99.90